»·PEaware :: N618AB KSNA-KSBA

N618AB :: KSNA-KSBA

FLIGHT INFORMATION

Flight Status: Arrived
Operator: Privately registered:
United States
More flights under this callsign
Pilot: Saso K. (7898)
Aircraft: BEECH AIRCRAFT BEECH AIRLINER
(B190)
More flights by this aircraft type
Origin: KSNA John Wayne-Orange Co
United States
Destination: KSBA Santa Barbara Mun
United States
More flights between these airports :: More routes between these airports
Route: +SXC V208 VTU VTU282 KWANG
File this flight plan on PilotEdge
Remarks: TEC route CSTN28
Altitude:
(Current/Filed)
8,000ft
Speed:
(Current/Filed)
270kts
Departed: 23-Dec-16 07:45 PM
Arrived: 23-Dec-16 08:32 PM
Distance/Time
Traveled:
108nm/0:46
Distance/Time
To Go:
Arrived

Flight Plot

Page will automatically refresh every two minutes.


Map Options




Map Legend


Flown Route
Filed Route
Departure Airport
Arrival Airport
Navaid (VOR, NDB)
Fix

Horizontal Profiles

Position Reports

Time Latitude Longitude Heading Altitude Ground
Speed
23-Dec-16 19:01 33.671117 -117.867626 17 51ft 0kts
23-Dec-16 19:02 33.671117 -117.867626 17 51ft 0kts
23-Dec-16 19:03 33.671117 -117.867626 17 51ft 0kts
23-Dec-16 19:04 33.671117 -117.867626 17 51ft 0kts
23-Dec-16 19:05 33.671117 -117.867626 17 51ft 0kts
23-Dec-16 19:06 33.671117 -117.867626 17 51ft 0kts
23-Dec-16 19:07 33.671117 -117.867626 17 51ft 0kts
23-Dec-16 19:08 33.671117 -117.867626 17 51ft 0kts
23-Dec-16 19:09 33.671117 -117.867626 17 51ft 0kts
23-Dec-16 19:10 33.671117 -117.867626 17 51ft 0kts
23-Dec-16 19:11 33.671117 -117.867626 17 51ft 0kts
23-Dec-16 19:12 33.671117 -117.867626 17 51ft 0kts
23-Dec-16 19:13 33.671117 -117.867626 17 51ft 0kts
23-Dec-16 19:14 33.671117 -117.867626 17 51ft 0kts
23-Dec-16 19:15 33.671117 -117.867626 17 51ft 0kts
23-Dec-16 19:16 33.671117 -117.867626 17 51ft 0kts
23-Dec-16 19:17 33.671117 -117.867626 17 51ft 0kts
23-Dec-16 19:18 33.671117 -117.867626 17 51ft 0kts
23-Dec-16 19:19 33.671117 -117.867626 17 51ft 0kts
23-Dec-16 19:20 33.671117 -117.867626 17 51ft 0kts
23-Dec-16 19:21 33.671117 -117.867626 17 51ft 0kts
23-Dec-16 19:22 33.671117 -117.867626 17 51ft 0kts
23-Dec-16 19:23 33.671117 -117.867626 17 51ft 0kts
23-Dec-16 19:24 33.671117 -117.867626 17 51ft 0kts
23-Dec-16 19:25 33.671117 -117.867626 17 51ft 0kts
23-Dec-16 19:26 33.671404 -117.867897 296 51ft 3kts
23-Dec-16 19:27 33.673041 -117.867315 57 50ft 13kts
23-Dec-16 19:28 33.676615 -117.864903 28 45ft 15kts
23-Dec-16 19:29 33.679692 -117.863106 328 41ft 5kts
23-Dec-16 19:30 33.679953 -117.863606 297 41ft 0kts
23-Dec-16 19:31 33.680206 -117.864181 299 41ft 7kts
23-Dec-16 19:32 33.680623 -117.865700 207 42ft 0kts
23-Dec-16 19:33 33.680623 -117.865700 207 42ft 0kts
23-Dec-16 19:34 33.680623 -117.865700 207 42ft 0kts
23-Dec-16 19:35 33.680623 -117.865700 207 42ft 0kts
23-Dec-16 19:36 33.680623 -117.865700 207 42ft 0kts
23-Dec-16 19:37 33.675216 -117.869135 207 51ft 109kts
23-Dec-16 19:38 33.641250 -117.882056 187 1228ft 155kts
23-Dec-16 19:39 33.598780 -117.888716 186 2984ft 159kts
23-Dec-16 19:40 33.556373 -117.893899 186 4700ft 160kts
23-Dec-16 19:41 33.530490 -117.931609 244 6469ft 165kts
23-Dec-16 19:42 33.514720 -117.980755 244 7905ft 165kts
23-Dec-16 19:43 33.495999 -118.039312 246 8019ft 220kts
23-Dec-16 19:44 33.473799 -118.109378 246 8010ft 240kts
23-Dec-16 19:45 33.450997 -118.181151 246 8040ft 243kts
23-Dec-16 19:46 33.429398 -118.248983 246 8039ft 245kts
23-Dec-16 19:47 33.406234 -118.321620 246 8035ft 245kts
23-Dec-16 19:48 33.382784 -118.394759 246 8034ft 245kts
23-Dec-16 19:49 33.406287 -118.463419 304 8036ft 262kts
23-Dec-16 19:50 33.450002 -118.526575 305 8034ft 264kts
23-Dec-16 19:51 33.484167 -118.575376 305 8034ft 264kts
23-Dec-16 19:52 33.528883 -118.639232 305 8035ft 265kts
23-Dec-16 19:53 33.579242 -118.711287 304 8037ft 265kts
23-Dec-16 19:54 33.616158 -118.764184 304 8100ft 262kts
23-Dec-16 19:55 33.659926 -118.827000 304 8098ft 263kts
23-Dec-16 19:56 33.703758 -118.889993 304 8086ft 264kts
23-Dec-16 19:57 33.747647 -118.953123 304 8449ft 250kts
23-Dec-16 19:58 33.785353 -119.007077 305 10022ft 217kts
23-Dec-16 19:59 33.848303 -119.021652 349 10066ft 269kts
23-Dec-16 20:00 33.917652 -119.028820 349 10061ft 280kts
23-Dec-16 20:01 33.988242 -119.036195 350 10059ft 283kts
23-Dec-16 20:02 34.059759 -119.043734 351 9999ft 279kts
23-Dec-16 20:03 34.114787 -119.060240 305 10018ft 258kts
23-Dec-16 20:04 34.148176 -119.129923 293 10003ft 256kts
23-Dec-16 20:05 34.177617 -119.204454 280 9113ft 264kts
23-Dec-16 20:06 34.178444 -119.281295 271 8606ft 217kts
23-Dec-16 20:07 34.178018 -119.350610 271 7535ft 212kts
23-Dec-16 20:08 34.176877 -119.419276 271 6542ft 212kts
23-Dec-16 20:09 34.175293 -119.488337 271 5994ft 201kts
23-Dec-16 20:10 34.173660 -119.558717 272 6019ft 225kts
23-Dec-16 20:11 34.181452 -119.631453 292 6015ft 231kts
23-Dec-16 20:12 34.201800 -119.702080 291 6015ft 240kts
23-Dec-16 20:13 34.228269 -119.774232 291 6009ft 253kts
23-Dec-16 20:14 34.254800 -119.845597 291 5995ft 233kts
23-Dec-16 20:15 34.278949 -119.909629 291 5641ft 210kts
23-Dec-16 20:16 34.301419 -119.971475 291 4475ft 209kts
23-Dec-16 20:17 34.321793 -120.030830 292 4018ft 204kts
23-Dec-16 20:18 34.367974 -120.050221 2 4026ft 199kts
23-Dec-16 20:19 34.422294 -120.050178 17 3996ft 199kts
23-Dec-16 20:20 34.422972 -119.996733 88 2907ft 182kts
23-Dec-16 20:21 34.425621 -119.941034 87 1891ft 138kts
23-Dec-16 20:22 34.426147 -119.900888 88 1107ft 127kts
23-Dec-16 20:23 34.427382 -119.859903 88 139ft 116kts
23-Dec-16 20:24 34.427468 -119.838555 165 13ft 10kts
23-Dec-16 20:25 34.426751 -119.838353 164 12ft 3kts
23-Dec-16 20:26 34.424576 -119.837691 166 14ft 12kts
23-Dec-16 20:27 34.422708 -119.836491 91 13ft 5kts
23-Dec-16 20:28 34.422869 -119.836113 341 12ft 0kts

Navigation Log

Ident Type
1. KSNA Airport
2. SXC Navaid
3. WEEZL Fix
4. VTU Navaid
5. KWANG Fix
6. KSBA Airport